Time;durP1;ratioP1;P1;durP2;ratioP2;P2;SDS_P1;SDS_P2;PMS_P1;PMS_P2;Temp;Humidity;BMP_temperature;BMP_pressure;BME280_temperature;BME280_humidity;BME280_pressure;Samples;Min_cycle;Max_cycle;Signal;HPM_P1;HPM_P2
2023/06/01 00:02:11;;;;;;;14.30;8.70;;;12.00;83.70;;;;;;5015628;28;20287;-87
2023/06/01 00:04:40;;;;;;;14.27;9.57;;;12.00;83.50;;;;;;5015523;28;20187;-87
2023/06/01 00:07:06;;;;;;;17.90;9.50;;;12.00;83.40;;;;;;5015404;28;20185;-87
2023/06/01 00:09:32;;;;;;;14.90;9.73;;;12.00;83.40;;;;;;5015300;28;20200;-87
2023/06/01 00:11:57;;;;;;;14.17;9.10;;;12.00;83.40;;;;;;5015075;28;20201;-87
2023/06/01 00:14:23;;;;;;;16.50;9.80;;;12.10;83.50;;;;;;5016527;28;20169;-87
2023/06/01 00:16:48;;;;;;;18.93;11.67;;;12.10;83.30;;;;;;5015243;28;20177;-88
2023/06/01 00:19:14;;;;;;;21.90;9.60;;;12.10;83.40;;;;;;5016574;28;20174;-86
2023/06/01 00:21:41;;;;;;;17.80;10.00;;;12.00;83.60;;;;;;5014959;28;20675;-87
2023/06/01 00:24:07;;;;;;;24.90;10.93;;;12.10;83.90;;;;;;5015118;28;20181;-86
2023/06/01 00:26:32;;;;;;;19.80;11.00;;;12.10;83.90;;;;;;5014974;28;20547;-86
2023/06/01 00:28:59;;;;;;;21.03;10.47;;;12.20;84.00;;;;;;5016011;28;20181;-86
2023/06/01 00:31:25;;;;;;;18.97;10.73;;;12.20;84.00;;;;;;5016068;28;20201;-87
2023/06/01 00:33:52;;;;;;;26.03;10.90;;;12.20;84.10;;;;;;5014927;28;20662;-86
2023/06/01 00:36:18;;;;;;;21.23;9.37;;;12.00;84.50;;;;;;5014859;28;20682;-86
2023/06/01 00:38:43;;;;;;;17.50;9.10;;;12.00;84.70;;;;;;5015997;28;20199;-86
2023/06/01 00:41:09;;;;;;;15.30;9.90;;;12.00;84.70;;;;;;5015902;28;20189;-86
2023/06/01 00:43:34;;;;;;;26.53;11.47;;;12.00;84.80;;;;;;5015448;28;20197;-86
2023/06/01 00:46:00;;;;;;;23.67;11.00;;;11.90;84.20;;;;;;5014083;28;20208;-86
2023/06/01 00:48:25;;;;;;;22.57;10.23;;;12.00;83.70;;;;;;5015898;28;20204;-87
2023/06/01 00:50:51;;;;;;;19.67;10.87;;;12.00;83.30;;;;;;5014545;28;20204;-86
2023/06/01 00:53:19;;;;;;;15.67;10.07;;;12.00;83.20;;;;;;5014505;28;20614;-86
2023/06/01 00:55:46;;;;;;;16.10;10.43;;;11.90;83.00;;;;;;5015808;28;20165;-86
2023/06/01 00:58:12;;;;;;;24.03;10.87;;;12.00;83.00;;;;;;5015664;28;20649;-86
2023/06/01 01:00:40;;;;;;;19.60;11.20;;;12.00;82.90;;;;;;5014389;28;20268;-86
2023/06/01 01:03:09;;;;;;;18.00;10.30;;;12.00;82.80;;;;;;5014266;28;20203;-86
2023/06/01 01:05:36;;;;;;;23.67;10.73;;;12.00;82.80;;;;;;5014347;28;20174;-86
2023/06/01 01:08:30;;;;;;;26.73;10.47;;;12.00;82.70;;;;;;5014370;28;20177;-86
2023/06/01 01:11:06;;;;;;;20.30;10.60;;;12.00;82.50;;;;;;5014237;28;20204;-86
2023/06/01 01:13:52;;;;;;;20.80;10.20;;;11.90;82.70;;;;;;5015367;28;20181;-86
2023/06/01 01:16:27;;;;;;;19.10;11.00;;;11.90;82.90;;;;;;5014133;28;20628;-86
2023/06/01 01:19:03;;;;;;;20.10;10.00;;;11.80;82.90;;;;;;5013980;28;20216;-86
2023/06/01 01:21:38;;;;;;;17.93;10.53;;;11.80;82.90;;;;;;5013946;28;20195;-86
2023/06/01 01:24:38;;;;;;;17.17;9.93;;;11.90;82.60;;;;;;5013963;28;20548;-86
2023/06/01 01:27:26;;;;;;;20.50;9.60;;;11.90;82.30;;;;;;5013969;28;20165;-86
2023/06/01 01:29:54;;;;;;;17.63;9.60;;;11.90;82.30;;;;;;5013804;28;20336;-86
2023/06/01 01:32:23;;;;;;;27.90;10.67;;;12.00;82.20;;;;;;5013795;28;20201;-87
2023/06/01 01:34:51;;;;;;;18.47;10.20;;;11.90;82.50;;;;;;5013696;28;20181;-85
2023/06/01 01:37:16;;;;;;;18.80;9.57;;;11.90;82.40;;;;;;5014959;28;20192;-86
2023/06/01 01:39:42;;;;;;;24.60;10.93;;;11.90;82.80;;;;;;5013613;28;20173;-86
2023/06/01 01:42:08;;;;;;;26.53;13.87;;;11.80;83.00;;;;;;5013528;28;20193;-86
2023/06/01 01:44:33;;;;;;;24.83;18.57;;;11.90;82.90;;;;;;5015004;28;20181;-86
2023/06/01 01:47:09;;;;;;;26.23;19.47;;;11.90;83.00;;;;;;5013663;28;20722;-86
2023/06/01 01:49:41;;;;;;;22.10;18.30;;;11.80;82.80;;;;;;5013497;28;20197;-86
2023/06/01 01:52:21;;;;;;;30.43;18.33;;;11.90;82.70;;;;;;5013637;28;20604;-86
2023/06/01 01:54:49;;;;;;;26.20;18.33;;;11.90;82.40;;;;;;5013213;28;20169;-86
2023/06/01 01:57:16;;;;;;;27.00;19.23;;;11.90;82.20;;;;;;5013307;28;20707;-86
2023/06/01 01:59:42;;;;;;;22.50;10.23;;;11.90;82.10;;;;;;5013282;28;20181;-86
2023/06/01 02:02:08;;;;;;;19.40;9.40;;;11.80;81.90;;;;;;5014320;28;20619;-86
2023/06/01 02:04:45;;;;;;;18.20;9.77;;;11.80;82.00;;;;;;5013094;28;20244;-86
2023/06/01 02:07:11;;;;;;;24.57;11.07;;;11.80;82.00;;;;;;5013307;28;20218;-87
2023/06/01 02:09:38;;;;;;;25.60;9.53;;;11.90;82.10;;;;;;5013610;28;20197;-87
2023/06/01 02:12:04;;;;;;;17.57;9.40;;;11.90;82.10;;;;;;5014457;28;20701;-87
2023/06/01 02:14:30;;;;;;;16.37;10.00;;;11.90;82.10;;;;;;5013704;28;20166;-87
2023/06/01 02:16:55;;;;;;;19.13;9.63;;;11.90;81.90;;;;;;5014698;28;20574;-87
2023/06/01 02:19:21;;;;;;;21.77;9.63;;;11.80;82.00;;;;;;5013470;28;20177;-86
2023/06/01 02:21:47;;;;;;;20.43;9.67;;;11.80;82.00;;;;;;5013161;28;20694;-87
2023/06/01 02:24:13;;;;;;;16.40;9.20;;;11.80;82.00;;;;;;5013071;28;20177;-86
2023/06/01 02:26:38;;;;;;;19.13;11.07;;;11.70;81.80;;;;;;5013218;28;20268;-86
2023/06/01 02:29:07;;;;;;;18.77;10.03;;;11.80;81.80;;;;;;5014178;28;20243;-87
2023/06/01 02:31:36;;;;;;;24.53;11.97;;;11.70;82.00;;;;;;5013969;28;20181;-87
2023/06/01 02:34:01;;;;;;;21.63;11.13;;;11.70;82.20;;;;;;5013961;28;20257;-86
2023/06/01 02:36:28;;;;;;;19.87;10.60;;;11.70;82.30;;;;;;5012752;28;20260;-87
2023/06/01 02:38:55;;;;;;;19.90;10.80;;;11.70;82.20;;;;;;5012659;28;20181;-87
2023/06/01 02:41:21;;;;;;;20.30;9.97;;;11.70;82.40;;;;;;5013890;28;20184;-86
2023/06/01 02:43:47;;;;;;;18.70;9.83;;;11.70;82.60;;;;;;5012619;28;20173;-86
2023/06/01 02:46:12;;;;;;;19.40;10.80;;;11.80;82.70;;;;;;5012651;28;20181;-86
2023/06/01 02:48:38;;;;;;;19.27;10.73;;;11.80;82.50;;;;;;5013712;28;20177;-86
2023/06/01 02:51:03;;;;;;;20.97;10.53;;;11.80;82.40;;;;;;5013672;28;20203;-87
2023/06/01 02:53:29;;;;;;;17.23;9.50;;;11.80;82.50;;;;;;5012313;28;20576;-86
2023/06/01 02:55:55;;;;;;;23.37;10.47;;;11.70;82.60;;;;;;5013849;28;20652;-86
2023/06/01 02:58:21;;;;;;;21.47;10.57;;;11.70;83.00;;;;;;5012504;28;20201;-85
2023/06/01 03:00:46;;;;;;;19.60;10.87;;;11.70;83.10;;;;;;5012487;28;20216;-86
2023/06/01 03:03:12;;;;;;;20.20;10.57;;;11.60;82.70;;;;;;5012247;28;20204;-86
2023/06/01 03:05:38;;;;;;;24.17;11.17;;;11.60;82.50;;;;;;5012294;28;20184;-86
2023/06/01 03:08:04;;;;;;;30.87;10.73;;;11.70;82.10;;;;;;5012643;28;20211;-86
2023/06/01 03:10:31;;;;;;;22.60;11.50;;;11.60;82.20;;;;;;5012227;28;20201;-86
2023/06/01 03:12:57;;;;;;;19.53;11.00;;;11.60;82.30;;;;;;5012026;28;20219;-86
2023/06/01 03:15:22;;;;;;;25.90;11.50;;;11.60;82.40;;;;;;5012234;28;20184;-86
2023/06/01 03:17:48;;;;;;;23.87;11.03;;;11.60;82.50;;;;;;5013413;28;20173;-86
2023/06/01 03:20:16;;;;;;;31.47;13.40;;;11.60;82.20;;;;;;5012548;28;20177;-86
2023/06/01 03:22:43;;;;;;;19.20;10.30;;;11.60;82.30;;;;;;5012016;28;20193;-86
2023/06/01 03:25:09;;;;;;;29.97;12.43;;;11.60;82.40;;;;;;5012139;28;20173;-86
2023/06/01 03:27:35;;;;;;;27.70;13.10;;;11.70;82.40;;;;;;5012161;28;20177;-86
2023/06/01 03:30:02;;;;;;;22.47;11.90;;;11.70;82.10;;;;;;5011981;28;20275;-86
2023/06/01 03:32:27;;;;;;;22.00;12.10;;;11.70;82.10;;;;;;5013395;28;20187;-86
2023/06/01 03:34:53;;;;;;;30.57;12.87;;;11.70;82.30;;;;;;5013261;28;20605;-86
2023/06/01 03:37:19;;;;;;;24.90;11.73;;;11.70;82.20;;;;;;5013515;28;20184;-86
2023/06/01 03:39:45;;;;;;;22.43;11.50;;;11.70;82.40;;;;;;5012023;28;20192;-86
2023/06/01 03:42:11;;;;;;;20.40;11.03;;;11.70;82.20;;;;;;5011946;28;20248;-86
2023/06/01 03:44:36;;;;;;;19.93;11.50;;;11.50;81.90;;;;;;5013130;28;20181;-86
2023/06/01 03:47:02;;;;;;;21.03;10.40;;;11.60;82.20;;;;;;5011982;28;20723;-86
2023/06/01 03:49:27;;;;;;;29.80;11.23;;;11.60;82.20;;;;;;5013106;28;20276;-86
2023/06/01 03:51:53;;;;;;;19.30;10.27;;;11.60;82.30;;;;;;5011904;28;20675;-86
2023/06/01 03:54:20;;;;;;;18.43;11.10;;;11.50;82.30;;;;;;5011926;28;20705;-86
2023/06/01 03:56:46;;;;;;;20.73;11.90;;;11.60;82.30;;;;;;5011834;28;20178;-86
2023/06/01 03:59:11;;;;;;;25.90;11.00;;;11.60;82.30;;;;;;5012990;28;20177;-86
2023/06/01 04:01:39;;;;;;;24.00;10.53;;;11.70;82.30;;;;;;5011690;28;20201;-86
2023/06/01 04:04:05;;;;;;;23.60;10.70;;;11.70;82.30;;;;;;5011817;28;20200;-85
2023/06/01 04:06:35;;;;;;;22.83;10.00;;;11.70;83.00;;;;;;5013087;28;20640;-84
2023/06/01 04:09:06;;;;;;;25.67;11.07;;;11.70;83.30;;;;;;5011832;28;20178;-85
2023/06/01 04:11:33;;;;;;;25.53;16.20;;;11.60;83.60;;;;;;5011679;28;20209;-84
2023/06/01 04:13:59;;;;;;;30.13;16.33;;;11.60;83.50;;;;;;5012807;28;20173;-85
2023/06/01 04:16:25;;;;;;;29.50;16.80;;;11.60;83.50;;;;;;5013074;28;20169;-85
2023/06/01 04:18:51;;;;;;;25.60;18.03;;;11.60;83.40;;;;;;5014261;28;20166;-86
2023/06/01 04:21:17;;;;;;;22.43;16.87;;;11.60;83.40;;;;;;5016312;28;20265;-88
2023/06/01 04:23:43;;;;;;;27.00;17.33;;;11.70;83.20;;;;;;5015486;28;20173;-85
2023/06/01 04:26:08;;;;;;;25.10;15.40;;;11.70;83.20;;;;;;5015167;28;20182;-86
2023/06/01 04:28:34;;;;;;;26.20;15.27;;;11.70;83.00;;;;;;5015015;28;20182;-86
2023/06/01 04:31:02;;;;;;;21.00;10.27;;;11.70;83.10;;;;;;5016317;28;20615;-86
2023/06/01 04:33:27;;;;;;;22.57;9.87;;;11.70;83.10;;;;;;5015438;28;20196;-86
2023/06/01 04:35:53;;;;;;;17.67;9.63;;;11.70;83.00;;;;;;5016205;28;20550;-86
2023/06/01 04:38:20;;;;;;;19.40;9.43;;;11.80;82.90;;;;;;5016046;28;20659;-86
2023/06/01 04:40:46;;;;;;;22.70;9.90;;;11.80;82.90;;;;;;5015987;28;20174;-85
2023/06/01 04:43:12;;;;;;;23.37;10.10;;;11.70;83.00;;;;;;5016147;28;20561;-86
2023/06/01 04:45:38;;;;;;;16.63;9.07;;;11.80;82.90;;;;;;5015966;28;20205;-86
2023/06/01 04:48:08;;;;;;;18.13;9.13;;;11.80;83.00;;;;;;5015983;28;20585;-86
2023/06/01 04:50:34;;;;;;;21.20;8.83;;;11.70;83.30;;;;;;5014581;28;20204;-85
2023/06/01 04:53:00;;;;;;;22.97;9.23;;;11.80;83.40;;;;;;5015720;28;20196;-87
2023/06/01 04:55:26;;;;;;;23.23;8.10;;;11.80;83.30;;;;;;5014536;28;20265;-86
2023/06/01 04:57:52;;;;;;;15.93;7.63;;;11.80;82.70;;;;;;5014491;28;20611;-86
2023/06/01 05:00:18;;;;;;;21.20;9.43;;;11.70;82.40;;;;;;5015990;28;20173;-86
2023/06/01 05:02:46;;;;;;;20.20;8.90;;;11.70;82.30;;;;;;5015654;28;20185;-86
2023/06/01 05:05:12;;;;;;;19.60;8.43;;;11.70;82.40;;;;;;5015538;28;20174;-85
2023/06/01 05:07:39;;;;;;;20.87;8.60;;;11.70;82.80;;;;;;5014392;28;20181;-85
2023/06/01 05:10:06;;;;;;;19.47;8.53;;;11.80;82.40;;;;;;5015508;28;20197;-85
2023/06/01 05:12:33;;;;;;;19.70;8.57;;;11.80;82.40;;;;;;5015206;28;20205;-85
2023/06/01 05:14:59;;;;;;;18.77;8.87;;;11.70;82.40;;;;;;5014317;28;20730;-85
2023/06/01 05:17:25;;;;;;;21.47;8.87;;;11.70;82.30;;;;;;5014965;28;20205;-86
2023/06/01 05:19:51;;;;;;;17.93;8.50;;;11.80;82.40;;;;;;5015459;28;20212;-86
2023/06/01 05:22:16;;;;;;;18.50;8.20;;;11.80;82.30;;;;;;5015422;28;20204;-86
2023/06/01 05:24:42;;;;;;;16.73;7.43;;;11.80;82.70;;;;;;5015552;28;20177;-85
2023/06/01 05:27:07;;;;;;;21.47;8.67;;;11.90;82.80;;;;;;5014003;28;20184;-85
2023/06/01 05:29:33;;;;;;;16.60;8.03;;;11.80;82.20;;;;;;5014960;28;20193;-86
2023/06/01 05:31:58;;;;;;;20.50;8.87;;;11.80;82.20;;;;;;5013305;28;20305;-85
2023/06/01 05:34:24;;;;;;;19.53;7.93;;;11.80;82.20;;;;;;5013716;28;20181;-86
2023/06/01 05:36:50;;;;;;;19.43;7.77;;;11.90;82.20;;;;;;5013799;28;20180;-87
2023/06/01 05:39:15;;;;;;;15.53;7.90;;;11.90;82.10;;;;;;5013820;28;20239;-86
2023/06/01 05:41:41;;;;;;;16.93;8.03;;;11.80;82.30;;;;;;5014998;28;20185;-86
2023/06/01 05:44:06;;;;;;;18.23;7.77;;;11.80;82.20;;;;;;5013536;28;20177;-85
2023/06/01 05:46:33;;;;;;;17.67;7.67;;;11.80;81.80;;;;;;5013528;28;20224;-86
2023/06/01 05:48:59;;;;;;;16.10;7.63;;;11.90;81.30;;;;;;5014731;28;20173;-86
2023/06/01 05:51:24;;;;;;;24.53;8.20;;;11.90;81.60;;;;;;5013281;28;20201;-86
2023/06/01 05:53:50;;;;;;;21.07;8.33;;;11.90;81.60;;;;;;5013412;28;20209;-85
2023/06/01 05:56:16;;;;;;;18.47;8.13;;;12.00;81.80;;;;;;5014634;28;20184;-86
2023/06/01 05:58:42;;;;;;;17.63;7.47;;;11.90;81.70;;;;;;5014581;28;20647;-86
2023/06/01 06:01:09;;;;;;;22.33;8.47;;;11.80;82.30;;;;;;5013389;28;20239;-85
2023/06/01 06:03:36;;;;;;;45.33;11.10;;;11.90;82.40;;;;;;5013290;28;20181;-85
2023/06/01 06:06:02;;;;;;;22.53;8.33;;;11.80;82.10;;;;;;5013591;28;20184;-85
2023/06/01 06:08:27;;;;;;;14.83;8.47;;;11.90;82.10;;;;;;5014759;28;20256;-85
2023/06/01 06:10:53;;;;;;;22.47;8.23;;;11.90;82.00;;;;;;5013005;28;20424;-86
2023/06/01 06:13:19;;;;;;;19.60;7.70;;;11.90;82.20;;;;;;5014370;28;20213;-85
2023/06/01 06:15:44;;;;;;;24.27;9.03;;;11.90;82.50;;;;;;5013184;28;20268;-85
2023/06/01 06:18:10;;;;;;;18.00;8.83;;;12.00;82.60;;;;;;5012978;28;20184;-86
2023/06/01 06:20:35;;;;;;;20.60;8.13;;;12.00;82.50;;;;;;5013784;28;20185;-85
2023/06/01 06:23:01;;;;;;;17.67;8.30;;;12.00;82.60;;;;;;5012832;28;20288;-85
2023/06/01 06:25:26;;;;;;;20.53;9.20;;;12.00;82.50;;;;;;5014028;28;20699;-85
2023/06/01 06:27:52;;;;;;;16.70;7.87;;;12.00;82.60;;;;;;5014121;28;20177;-86
2023/06/01 06:30:18;;;;;;;19.73;8.27;;;12.10;82.70;;;;;;5012660;28;20578;-86
2023/06/01 06:32:43;;;;;;;17.97;9.03;;;12.20;82.70;;;;;;5012683;28;20193;-87
2023/06/01 06:35:12;;;;;;;22.77;8.63;;;12.20;82.60;;;;;;5013608;28;20182;-86
2023/06/01 06:37:39;;;;;;;26.70;9.20;;;12.10;82.00;;;;;;5012755;28;20564;-86
2023/06/01 06:40:06;;;;;;;19.10;7.93;;;12.20;82.30;;;;;;5012707;28;20188;-85
2023/06/01 06:42:32;;;;;;;18.23;7.87;;;12.20;82.50;;;;;;5013723;28;20544;-85
2023/06/01 06:44:57;;;;;;;23.87;8.27;;;12.30;82.20;;;;;;5012633;28;20181;-86
2023/06/01 06:47:24;;;;;;;20.97;6.83;;;12.30;82.30;;;;;;5012664;28;20177;-85
2023/06/01 06:49:51;;;;;;;20.97;14.97;;;12.30;82.10;;;;;;5013949;28;20197;-86
2023/06/01 06:52:16;;;;;;;16.90;14.97;;;12.30;81.70;;;;;;5012427;28;20220;-85
2023/06/01 06:54:42;;;;;;;20.57;14.40;;;12.30;81.50;;;;;;5013687;28;20715;-86
2023/06/01 06:57:08;;;;;;;18.17;13.97;;;12.20;81.90;;;;;;5012469;28;20204;-85
2023/06/01 06:59:33;;;;;;;22.27;14.90;;;12.30;82.10;;;;;;5012595;28;20204;-86
2023/06/01 07:01:59;;;;;;;20.93;14.63;;;12.30;81.90;;;;;;5013621;28;20229;-86
2023/06/01 07:04:25;;;;;;;20.20;13.90;;;12.30;81.60;;;;;;5013698;28;20173;-86
2023/06/01 07:06:51;;;;;;;23.57;14.77;;;12.40;81.40;;;;;;5012366;28;20268;-85
2023/06/01 07:09:17;;;;;;;26.40;15.00;;;12.50;81.60;;;;;;5012318;28;20169;-87
2023/06/01 07:11:43;;;;;;;23.33;15.53;;;12.50;81.70;;;;;;5012292;28;20189;-86
2023/06/01 07:14:08;;;;;;;22.53;16.53;;;12.50;81.70;;;;;;5012390;28;20727;-87
2023/06/01 07:16:34;;;;;;;23.50;16.50;;;12.50;81.20;;;;;;5013594;28;20651;-88
2023/06/01 07:19:00;;;;;;;23.80;15.47;;;12.30;81.20;;;;;;5012401;28;20543;-86
2023/06/01 07:21:25;;;;;;;20.37;16.43;;;12.30;81.30;;;;;;5013795;28;20187;-86
2023/06/01 07:23:51;;;;;;;24.53;16.77;;;12.50;81.00;;;;;;5012239;28;20200;-86
2023/06/01 07:26:17;;;;;;;17.83;15.90;;;12.60;81.00;;;;;;5012355;28;20177;-85
2023/06/01 07:28:42;;;;;;;27.00;15.90;;;12.50;80.80;;;;;;5012075;28;20263;-86
2023/06/01 07:31:08;;;;;;;19.10;7.33;;;12.50;80.80;;;;;;5012236;28;20671;-85
2023/06/01 07:33:35;;;;;;;11.13;6.37;;;12.70;80.90;;;;;;5011958;28;20173;-87
2023/06/01 07:36:01;;;;;;;22.20;8.00;;;12.60;81.10;;;;;;5012083;28;20605;-85
2023/06/01 07:38:27;;;;;;;15.97;7.43;;;12.60;81.10;;;;;;5013619;28;20173;-85
2023/06/01 07:40:52;;;;;;;19.20;7.53;;;12.70;81.20;;;;;;5012293;28;20518;-84
2023/06/01 07:43:18;;;;;;;19.03;7.37;;;12.60;81.80;;;;;;5013250;28;20637;-85
2023/06/01 07:45:43;;;;;;;17.50;7.47;;;12.50;82.00;;;;;;5012075;28;20663;-86
2023/06/01 07:48:09;;;;;;;15.30;7.43;;;12.50;82.00;;;;;;5013156;28;20182;-86
2023/06/01 07:50:36;;;;;;;14.33;7.73;;;12.30;82.50;;;;;;5013113;28;20185;-85
2023/06/01 07:53:02;;;;;;;11.73;6.67;;;12.50;82.40;;;;;;5011862;28;20201;-85
2023/06/01 07:55:28;;;;;;;18.67;7.07;;;12.40;81.50;;;;;;5016867;28;20648;-85
2023/06/01 07:57:54;;;;;;;19.27;7.80;;;12.50;81.60;;;;;;5016208;28;20185;-85
2023/06/01 08:00:19;;;;;;;12.77;6.73;;;12.60;81.30;;;;;;5017681;28;20177;-85
2023/06/01 08:02:45;;;;;;;12.83;7.10;;;12.70;81.50;;;;;;5018990;28;20197;-85
2023/06/01 08:05:11;;;;;;;13.03;6.80;;;12.70;81.80;;;;;;5016786;28;20619;-86
2023/06/01 08:07:38;;;;;;;12.53;6.93;;;12.80;81.50;;;;;;5016811;28;20228;-85
2023/06/01 08:10:05;;;;;;;15.47;6.73;;;12.70;81.50;;;;;;5017109;28;20204;-85
2023/06/01 08:12:31;;;;;;;13.93;6.53;;;12.70;82.40;;;;;;5016834;28;20209;-85
2023/06/01 08:14:58;;;;;;;12.63;6.80;;;12.80;83.10;;;;;;5017024;28;20184;-84
2023/06/01 08:17:24;;;;;;;16.57;6.80;;;12.70;82.70;;;;;;5016677;28;20179;-85
2023/06/01 08:19:49;;;;;;;17.93;7.00;;;12.80;82.40;;;;;;5016442;28;20237;-85
2023/06/01 08:22:16;;;;;;;12.07;7.03;;;12.80;81.50;;;;;;5015205;28;20705;-84
2023/06/01 08:24:42;;;;;;;21.07;6.90;;;12.90;80.80;;;;;;5015216;28;20185;-84
2023/06/01 08:27:22;;;;;;;13.37;7.70;;;12.80;80.60;;;;;;5015063;28;20647;-84
2023/06/01 08:29:48;;;;;;;18.40;7.97;;;12.80;80.00;;;;;;5016249;28;20213;-84
2023/06/01 08:32:15;;;;;;;14.23;7.40;;;12.80;80.00;;;;;;5015294;28;20194;-84
2023/06/01 08:34:43;;;;;;;13.83;6.73;;;12.80;79.10;;;;;;5016352;28;20177;-85
2023/06/01 08:37:08;;;;;;;14.53;7.57;;;12.70;78.90;;;;;;5016544;28;20184;-85
2023/06/01 08:39:34;;;;;;;13.30;7.53;;;12.70;78.60;;;;;;5016261;28;20170;-85
2023/06/01 08:42:33;;;;;;;15.07;8.00;;;12.80;78.50;;;;;;5015963;28;20193;-84
2023/06/01 08:45:03;;;;;;;17.20;7.43;;;13.00;78.20;;;;;;5011968;28;20197;-85
2023/06/01 08:47:31;;;;;;;20.50;9.73;;;12.90;77.00;;;;;;5015754;28;20177;-84
2023/06/01 08:49:58;;;;;;;11.20;7.73;;;13.00;76.70;;;;;;5014614;28;20208;-83
2023/06/01 08:52:28;;;;;;;31.47;11.77;;;13.10;76.60;;;;;;5014503;28;20197;-84
2023/06/01 08:54:55;;;;;;;16.73;7.73;;;13.10;76.70;;;;;;5015189;28;20157;-84
2023/06/01 08:57:21;;;;;;;32.20;10.43;;;13.00;77.40;;;;;;5015816;28;20177;-85
2023/06/01 08:59:47;;;;;;;26.47;8.23;;;13.20;77.90;;;;;;5014405;28;20182;-84
2023/06/01 09:02:14;;;;;;;24.50;8.50;;;13.10;77.80;;;;;;5015661;28;20204;-85
2023/06/01 09:04:42;;;;;;;18.67;8.77;;;13.00;77.50;;;;;;5013827;28;20185;-85
2023/06/01 09:07:08;;;;;;;18.10;8.67;;;13.10;78.40;;;;;;5015596;28;20184;-85
2023/06/01 09:09:34;;;;;;;24.77;8.63;;;13.20;79.20;;;;;;5015487;28;20547;-85
2023/06/01 09:12:25;;;;;;;17.67;8.10;;;13.20;78.30;;;;;;5015229;28;20197;-85
2023/06/01 09:15:08;;;;;;;19.97;8.50;;;13.20;78.70;;;;;;5015503;28;20165;-85
2023/06/01 09:17:34;;;;;;;15.57;8.03;;;13.30;78.80;;;;;;5015242;28;20194;-84
2023/06/01 09:20:00;;;;;;;27.93;8.07;;;13.30;79.10;;;;;;5015535;28;20174;-84
2023/06/01 09:22:46;;;;;;;15.03;8.77;;;13.20;78.80;;;;;;5015152;28;20190;-84
2023/06/01 09:25:14;;;;;;;19.70;8.07;;;13.30;78.90;;;;;;5014008;28;20175;-85
2023/06/01 09:27:44;;;;;;;18.00;7.80;;;13.00;79.50;;;;;;5013950;28;20185;-85
2023/06/01 09:30:10;;;;;;;22.53;8.50;;;13.10;80.00;;;;;;5013692;28;20207;-85
2023/06/01 09:32:35;;;;;;;17.83;8.23;;;13.20;79.90;;;;;;5013699;28;20705;-85
2023/06/01 09:35:01;;;;;;;24.67;11.00;;;13.30;79.30;;;;;;5014976;28;20173;-85
2023/06/01 09:37:27;;;;;;;17.57;8.00;;;13.30;80.10;;;;;;5013646;28;20176;-85
2023/06/01 09:39:52;;;;;;;17.70;8.07;;;13.10;78.60;;;;;;5013739;28;20182;-86
2023/06/01 09:42:31;;;;;;;12.93;7.80;;;13.30;78.90;;;;;;5014680;28;20194;-85
2023/06/01 09:45:18;;;;;;;15.87;8.30;;;13.50;78.30;;;;;;5014124;28;20173;-83
2023/06/01 09:47:44;;;;;;;15.83;8.73;;;13.50;77.40;;;;;;5014935;28;20172;-82
2023/06/01 09:50:10;;;;;;;16.00;8.60;;;13.50;77.10;;;;;;5014943;28;20292;-83
2023/06/01 09:52:36;;;;;;;17.00;8.97;;;13.50;77.00;;;;;;5014659;28;20189;-81
2023/06/01 09:55:07;;;;;;;16.73;8.90;;;13.50;75.50;;;;;;5015382;28;20659;-82
2023/06/01 09:57:32;;;;;;;18.50;9.13;;;13.40;74.60;;;;;;5013510;28;20281;-83
2023/06/01 10:00:00;;;;;;;11.33;8.27;;;13.50;74.40;;;;;;5013400;28;20735;-83
2023/06/01 10:02:26;;;;;;;15.03;9.30;;;13.60;74.40;;;;;;5016030;28;20284;-83
2023/06/01 10:04:54;;;;;;;17.70;8.60;;;13.50;74.70;;;;;;5013291;28;20197;-83
2023/06/01 10:07:20;;;;;;;21.27;8.10;;;13.50;75.40;;;;;;5013300;28;20316;-83
2023/06/01 10:09:58;;;;;;;16.77;8.30;;;13.70;74.90;;;;;;5013316;28;20672;-83
2023/06/01 10:12:25;;;;;;;18.60;8.97;;;13.70;75.70;;;;;;5013204;28;20228;-82
2023/06/01 10:14:51;;;;;;;15.77;8.67;;;13.50;75.90;;;;;;5012907;28;20247;-83
2023/06/01 10:17:21;;;;;;;16.17;8.53;;;13.50;76.30;;;;;;5012959;28;20546;-82
2023/06/01 10:19:47;;;;;;;18.43;8.53;;;13.40;76.80;;;;;;5012810;28;20189;-83
2023/06/01 10:22:12;;;;;;;13.17;8.43;;;13.50;76.30;;;;;;5013005;28;20200;-83
2023/06/01 10:24:41;;;;;;;14.47;8.40;;;13.60;75.30;;;;;;5014070;28;20170;-83
2023/06/01 10:27:32;;;;;;;17.00;9.73;;;13.70;74.80;;;;;;5012872;28;20551;-84
2023/06/01 10:29:57;;;;;;;16.60;9.10;;;13.70;75.50;;;;;;5014035;28;20185;-83
2023/06/01 10:32:46;;;;;;;16.20;8.07;;;13.80;75.10;;;;;;5012820;28;20690;-83
2023/06/01 10:35:26;;;;;;;12.77;8.50;;;13.60;75.00;;;;;;5013938;28;20585;-84
2023/06/01 10:38:09;;;;;;;15.60;8.53;;;13.70;75.30;;;;;;5013849;28;20236;-84
2023/06/01 10:40:38;;;;;;;16.73;7.83;;;13.50;75.90;;;;;;5013986;28;20169;-84
2023/06/01 10:43:05;;;;;;;18.13;8.50;;;13.30;77.40;;;;;;5012507;28;20201;-83
2023/06/01 10:45:34;;;;;;;14.73;7.87;;;13.30;76.40;;;;;;5012710;28;20184;-83
2023/06/01 10:48:01;;;;;;;19.57;8.27;;;13.30;77.10;;;;;;5014019;28;20177;-83
2023/06/01 10:50:26;;;;;;;12.33;8.10;;;13.40;75.50;;;;;;5012704;28;20198;-85
2023/06/01 10:52:54;;;;;;;14.80;8.10;;;13.60;75.80;;;;;;5013747;28;20189;-85
2023/06/01 10:55:21;;;;;;;15.33;8.03;;;13.80;74.90;;;;;;5012378;28;20188;-86
2023/06/01 10:57:47;;;;;;;13.40;7.60;;;13.70;74.70;;;;;;5012435;28;20543;-85
2023/06/01 11:00:26;;;;;;;15.10;7.50;;;13.70;74.70;;;;;;5013668;28;20181;-85
2023/06/01 11:03:02;;;;;;;16.57;7.83;;;13.60;75.60;;;;;;5013553;28;20200;-84
2023/06/01 11:05:48;;;;;;;18.00;7.40;;;13.90;74.80;;;;;;5013191;28;20165;-86
2023/06/01 11:08:22;;;;;;;13.33;6.70;;;13.70;74.80;;;;;;5013662;28;20169;-83
2023/06/01 11:10:54;;;;;;;13.03;7.07;;;13.60;75.40;;;;;;5012172;28;20224;-84
2023/06/01 11:13:25;;;;;;;12.57;7.20;;;13.50;76.80;;;;;;5012050;28;20259;-86
2023/06/01 11:16:21;;;;;;;14.57;7.30;;;13.60;77.20;;;;;;5012291;28;20589;-84
2023/06/01 11:19:02;;;;;;;18.23;7.93;;;13.50;76.90;;;;;;5012417;28;20176;-85
2023/06/01 11:21:33;;;;;;;12.77;6.63;;;13.60;77.40;;;;;;5013525;28;20196;-86
2023/06/01 11:24:00;;;;;;;14.47;7.60;;;13.50;77.20;;;;;;5012292;28;20173;-84
2023/06/01 11:26:35;;;;;;;15.53;7.20;;;13.30;76.70;;;;;;5012220;28;20236;-84
2023/06/01 11:29:27;;;;;;;15.83;6.87;;;13.30;77.20;;;;;;5013828;28;20203;-83
2023/06/01 11:31:57;;;;;;;16.50;8.03;;;13.50;77.30;;;;;;5016038;28;20292;-84
2023/06/01 11:34:43;;;;;;;13.73;7.37;;;13.50;76.80;;;;;;5016213;28;20166;-83
2023/06/01 11:37:13;;;;;;;23.53;7.77;;;13.50;76.30;;;;;;5016042;28;20643;-84
2023/06/01 11:39:40;;;;;;;15.43;6.60;;;13.50;77.10;;;;;;5016003;28;20228;-84
2023/06/01 11:42:14;;;;;;;20.27;7.57;;;13.50;76.90;;;;;;5017066;28;20284;-84
2023/06/01 11:44:41;;;;;;;21.43;7.47;;;13.70;77.00;;;;;;5016999;28;20166;-83
2023/06/01 11:47:08;;;;;;;31.07;7.60;;;13.80;76.90;;;;;;5015681;28;20181;-85
2023/06/01 11:49:47;;;;;;;12.43;7.70;;;13.80;75.60;;;;;;5015975;28;20177;-85
2023/06/01 11:52:13;;;;;;;14.57;6.83;;;14.00;76.00;;;;;;5015669;28;20627;-83
2023/06/01 11:54:39;;;;;;;14.87;7.03;;;13.50;76.90;;;;;;5017106;28;20209;-83
2023/06/01 11:57:05;;;;;;;19.10;6.73;;;13.50;77.90;;;;;;5016744;28;20173;-83
2023/06/01 11:59:42;;;;;;;16.97;6.70;;;13.20;79.00;;;;;;5015486;28;20571;-84
2023/06/01 12:02:29;;;;;;;17.70;11.70;;;13.50;78.70;;;;;;5015979;28;20197;-84
2023/06/01 12:05:08;;;;;;;24.47;12.17;;;13.60;78.10;;;;;;5016805;28;20193;-83
2023/06/01 12:07:47;;;;;;;17.47;12.63;;;13.60;77.30;;;;;;5017100;28;20164;-84
2023/06/01 12:10:15;;;;;;;21.43;13.07;;;13.80;76.70;;;;;;5016969;28;20185;-84
2023/06/01 12:12:42;;;;;;;17.17;12.30;;;13.80;76.50;;;;;;5015844;28;20224;-86
2023/06/01 12:15:10;;;;;;;16.40;8.23;;;14.00;76.20;;;;;;5015497;28;20546;-85
2023/06/01 12:17:55;;;;;;;11.87;7.17;;;14.00;75.10;;;;;;5016944;28;20166;-83
2023/06/01 12:20:38;;;;;;;12.13;7.30;;;14.20;75.70;;;;;;5016364;28;20184;-84
2023/06/01 12:23:09;;;;;;;18.40;7.20;;;14.00;75.90;;;;;;5015555;28;20200;-84
2023/06/01 12:25:35;;;;;;;13.00;6.60;;;13.50;77.20;;;;;;5015346;28;20186;-85
2023/06/01 12:28:09;;;;;;;18.47;8.63;;;13.60;77.20;;;;;;5015419;28;20273;-84
2023/06/01 12:30:36;;;;;;;16.00;7.37;;;13.60;76.70;;;;;;5015385;28;20625;-86
2023/06/01 12:33:04;;;;;;;15.67;7.50;;;13.70;76.50;;;;;;5015477;28;20219;-84
2023/06/01 12:35:30;;;;;;;18.37;8.27;;;13.80;75.90;;;;;;5016759;28;20178;-85
2023/06/01 12:38:10;;;;;;;17.00;7.50;;;13.70;75.90;;;;;;5015348;28;20184;-85
2023/06/01 12:40:36;;;;;;;14.17;7.20;;;13.90;75.50;;;;;;5015153;28;20647;-84